sensor_id;sensor_type;location;lat;lon;timestamp;P1;durP1;ratioP1;P2;durP2;ratioP2
8710;SDS011;4392;47.400;8.062;2022-08-27T00:00:44;36.47;;;34.43;;
8710;SDS011;4392;47.400;8.062;2022-08-27T00:03:10;36.07;;;34.13;;
8710;SDS011;4392;47.400;8.062;2022-08-27T00:05:37;35.83;;;33.93;;
8710;SDS011;4392;47.400;8.062;2022-08-27T00:08:04;36.23;;;34.13;;
8710;SDS011;4392;47.400;8.062;2022-08-27T00:10:34;36.13;;;34.03;;
8710;SDS011;4392;47.400;8.062;2022-08-27T00:12:59;36.40;;;34.30;;
8710;SDS011;4392;47.400;8.062;2022-08-27T00:15:26;36.07;;;33.77;;
8710;SDS011;4392;47.400;8.062;2022-08-27T00:17:52;35.97;;;33.77;;
8710;SDS011;4392;47.400;8.062;2022-08-27T00:20:19;35.57;;;33.47;;
8710;SDS011;4392;47.400;8.062;2022-08-27T00:22:46;36.13;;;34.00;;
8710;SDS011;4392;47.400;8.062;2022-08-27T00:25:12;35.87;;;33.73;;
8710;SDS011;4392;47.400;8.062;2022-08-27T00:27:38;36.07;;;33.97;;
8710;SDS011;4392;47.400;8.062;2022-08-27T00:30:04;36.43;;;34.47;;
8710;SDS011;4392;47.400;8.062;2022-08-27T00:32:33;35.20;;;33.30;;
8710;SDS011;4392;47.400;8.062;2022-08-27T00:34:58;36.80;;;34.50;;
8710;SDS011;4392;47.400;8.062;2022-08-27T00:37:24;35.97;;;33.90;;
8710;SDS011;4392;47.400;8.062;2022-08-27T00:39:50;37.17;;;34.90;;
8710;SDS011;4392;47.400;8.062;2022-08-27T00:42:16;36.43;;;34.33;;
8710;SDS011;4392;47.400;8.062;2022-08-27T00:44:41;36.93;;;34.47;;
8710;SDS011;4392;47.400;8.062;2022-08-27T00:47:21;36.30;;;34.27;;
8710;SDS011;4392;47.400;8.062;2022-08-27T00:50:01;36.03;;;34.03;;
8710;SDS011;4392;47.400;8.062;2022-08-27T00:52:36;36.30;;;34.10;;
8710;SDS011;4392;47.400;8.062;2022-08-27T00:57:33;35.60;;;33.73;;
8710;SDS011;4392;47.400;8.062;2022-08-27T01:00:04;36.13;;;34.13;;
8710;SDS011;4392;47.400;8.062;2022-08-27T01:02:32;35.80;;;33.70;;
8710;SDS011;4392;47.400;8.062;2022-08-27T01:05:00;36.77;;;34.73;;
8710;SDS011;4392;47.400;8.062;2022-08-27T01:07:30;36.33;;;34.13;;
8710;SDS011;4392;47.400;8.062;2022-08-27T01:09:59;35.67;;;33.67;;
8710;SDS011;4392;47.400;8.062;2022-08-27T01:12:28;36.17;;;34.13;;
8710;SDS011;4392;47.400;8.062;2022-08-27T01:14:55;36.20;;;33.87;;
8710;SDS011;4392;47.400;8.062;2022-08-27T01:17:21;36.37;;;34.30;;
8710;SDS011;4392;47.400;8.062;2022-08-27T01:19:57;36.20;;;34.07;;
8710;SDS011;4392;47.400;8.062;2022-08-27T01:22:48;36.97;;;34.77;;
8710;SDS011;4392;47.400;8.062;2022-08-27T01:25:34;36.47;;;34.47;;
8710;SDS011;4392;47.400;8.062;2022-08-27T01:28:01;36.93;;;34.73;;
8710;SDS011;4392;47.400;8.062;2022-08-27T01:30:29;35.87;;;33.97;;
8710;SDS011;4392;47.400;8.062;2022-08-27T01:32:55;35.80;;;33.87;;
8710;SDS011;4392;47.400;8.062;2022-08-27T01:35:22;36.57;;;34.50;;
8710;SDS011;4392;47.400;8.062;2022-08-27T01:37:48;36.50;;;34.37;;
8710;SDS011;4392;47.400;8.062;2022-08-27T01:40:17;35.80;;;33.80;;
8710;SDS011;4392;47.400;8.062;2022-08-27T01:42:45;35.07;;;33.17;;
8710;SDS011;4392;47.400;8.062;2022-08-27T01:45:16;35.20;;;33.30;;
8710;SDS011;4392;47.400;8.062;2022-08-27T01:47:48;35.30;;;33.47;;
8710;SDS011;4392;47.400;8.062;2022-08-27T01:50:17;35.33;;;33.43;;
8710;SDS011;4392;47.400;8.062;2022-08-27T01:52:45;35.20;;;33.30;;
8710;SDS011;4392;47.400;8.062;2022-08-27T01:55:14;35.37;;;33.57;;
8710;SDS011;4392;47.400;8.062;2022-08-27T01:57:42;35.27;;;33.27;;
8710;SDS011;4392;47.400;8.062;2022-08-27T02:00:14;36.77;;;34.77;;
8710;SDS011;4392;47.400;8.062;2022-08-27T02:02:45;36.37;;;34.27;;
8710;SDS011;4392;47.400;8.062;2022-08-27T02:05:12;37.50;;;35.07;;
8710;SDS011;4392;47.400;8.062;2022-08-27T02:07:39;35.80;;;33.80;;
8710;SDS011;4392;47.400;8.062;2022-08-27T02:10:06;36.40;;;34.27;;
8710;SDS011;4392;47.400;8.062;2022-08-27T02:12:34;35.43;;;33.47;;
8710;SDS011;4392;47.400;8.062;2022-08-27T02:15:00;36.70;;;34.67;;
8710;SDS011;4392;47.400;8.062;2022-08-27T02:17:26;36.63;;;34.63;;
8710;SDS011;4392;47.400;8.062;2022-08-27T02:19:52;36.93;;;34.73;;
8710;SDS011;4392;47.400;8.062;2022-08-27T02:22:18;35.33;;;33.43;;
8710;SDS011;4392;47.400;8.062;2022-08-27T02:24:44;36.67;;;34.57;;
8710;SDS011;4392;47.400;8.062;2022-08-27T02:27:10;36.43;;;34.43;;
8710;SDS011;4392;47.400;8.062;2022-08-27T02:29:36;36.77;;;34.83;;
8710;SDS011;4392;47.400;8.062;2022-08-27T02:32:02;35.97;;;33.70;;
8710;SDS011;4392;47.400;8.062;2022-08-27T02:34:28;36.07;;;34.07;;
8710;SDS011;4392;47.400;8.062;2022-08-27T02:36:54;36.90;;;34.67;;
8710;SDS011;4392;47.400;8.062;2022-08-27T02:39:20;37.60;;;35.40;;
8710;SDS011;4392;47.400;8.062;2022-08-27T02:41:46;36.97;;;34.57;;
8710;SDS011;4392;47.400;8.062;2022-08-27T02:44:12;36.60;;;34.50;;
8710;SDS011;4392;47.400;8.062;2022-08-27T02:46:39;36.10;;;34.10;;
8710;SDS011;4392;47.400;8.062;2022-08-27T02:49:05;37.37;;;35.07;;
8710;SDS011;4392;47.400;8.062;2022-08-27T02:51:33;36.57;;;34.57;;
8710;SDS011;4392;47.400;8.062;2022-08-27T02:53:59;37.33;;;35.13;;
8710;SDS011;4392;47.400;8.062;2022-08-27T02:56:25;37.33;;;35.23;;
8710;SDS011;4392;47.400;8.062;2022-08-27T02:58:51;36.90;;;34.90;;
8710;SDS011;4392;47.400;8.062;2022-08-27T03:01:17;37.10;;;34.83;;
8710;SDS011;4392;47.400;8.062;2022-08-27T03:03:46;37.27;;;35.00;;
8710;SDS011;4392;47.400;8.062;2022-08-27T03:06:11;37.40;;;35.03;;
8710;SDS011;4392;47.400;8.062;2022-08-27T03:08:38;37.20;;;35.10;;
8710;SDS011;4392;47.400;8.062;2022-08-27T03:11:03;37.80;;;35.50;;
8710;SDS011;4392;47.400;8.062;2022-08-27T03:13:34;36.97;;;34.87;;
8710;SDS011;4392;47.400;8.062;2022-08-27T03:16:04;37.27;;;35.03;;
8710;SDS011;4392;47.400;8.062;2022-08-27T03:18:30;36.77;;;34.77;;
8710;SDS011;4392;47.400;8.062;2022-08-27T03:20:57;36.53;;;34.43;;
8710;SDS011;4392;47.400;8.062;2022-08-27T03:23:27;36.70;;;34.70;;
8710;SDS011;4392;47.400;8.062;2022-08-27T03:25:57;36.83;;;34.63;;
8710;SDS011;4392;47.400;8.062;2022-08-27T03:28:27;35.10;;;33.10;;
8710;SDS011;4392;47.400;8.062;2022-08-27T03:31:00;35.77;;;33.83;;
8710;SDS011;4392;47.400;8.062;2022-08-27T03:33:28;35.93;;;33.87;;
8710;SDS011;4392;47.400;8.062;2022-08-27T03:36:00;35.40;;;33.57;;
8710;SDS011;4392;47.400;8.062;2022-08-27T03:38:26;35.97;;;33.93;;
8710;SDS011;4392;47.400;8.062;2022-08-27T03:40:52;36.03;;;33.93;;
8710;SDS011;4392;47.400;8.062;2022-08-27T03:43:18;36.20;;;34.20;;
8710;SDS011;4392;47.400;8.062;2022-08-27T03:45:45;36.07;;;33.83;;
8710;SDS011;4392;47.400;8.062;2022-08-27T03:48:12;35.80;;;33.80;;
8710;SDS011;4392;47.400;8.062;2022-08-27T03:50:40;34.90;;;33.00;;
8710;SDS011;4392;47.400;8.062;2022-08-27T03:53:08;34.67;;;32.93;;
8710;SDS011;4392;47.400;8.062;2022-08-27T03:55:35;34.70;;;32.83;;
8710;SDS011;4392;47.400;8.062;2022-08-27T03:58:03;35.33;;;33.43;;
8710;SDS011;4392;47.400;8.062;2022-08-27T04:00:29;32.67;;;31.17;;
8710;SDS011;4392;47.400;8.062;2022-08-27T04:02:55;32.70;;;31.20;;
8710;SDS011;4392;47.400;8.062;2022-08-27T04:05:21;33.00;;;31.57;;
8710;SDS011;4392;47.400;8.062;2022-08-27T04:07:47;33.30;;;31.70;;
8710;SDS011;4392;47.400;8.062;2022-08-27T04:10:13;32.87;;;31.37;;
8710;SDS011;4392;47.400;8.062;2022-08-27T04:12:40;33.30;;;31.77;;
8710;SDS011;4392;47.400;8.062;2022-08-27T04:15:07;33.20;;;31.70;;
8710;SDS011;4392;47.400;8.062;2022-08-27T04:17:34;33.23;;;31.77;;
8710;SDS011;4392;47.400;8.062;2022-08-27T04:20:00;34.70;;;33.03;;
8710;SDS011;4392;47.400;8.062;2022-08-27T04:22:28;33.50;;;31.97;;
8710;SDS011;4392;47.400;8.062;2022-08-27T04:24:54;33.67;;;32.07;;
8710;SDS011;4392;47.400;8.062;2022-08-27T04:27:20;33.43;;;31.93;;
8710;SDS011;4392;47.400;8.062;2022-08-27T04:29:47;33.93;;;32.37;;
8710;SDS011;4392;47.400;8.062;2022-08-27T04:32:12;34.13;;;32.43;;
8710;SDS011;4392;47.400;8.062;2022-08-27T04:34:39;33.33;;;31.83;;
8710;SDS011;4392;47.400;8.062;2022-08-27T04:37:05;34.40;;;32.70;;
8710;SDS011;4392;47.400;8.062;2022-08-27T04:39:31;34.47;;;32.80;;
8710;SDS011;4392;47.400;8.062;2022-08-27T04:41:59;34.20;;;32.50;;
8710;SDS011;4392;47.400;8.062;2022-08-27T04:44:26;33.77;;;32.17;;
8710;SDS011;4392;47.400;8.062;2022-08-27T04:46:55;33.63;;;32.13;;
8710;SDS011;4392;47.400;8.062;2022-08-27T04:49:24;34.10;;;32.50;;
8710;SDS011;4392;47.400;8.062;2022-08-27T04:51:51;34.40;;;32.70;;
8710;SDS011;4392;47.400;8.062;2022-08-27T04:54:19;33.77;;;32.17;;
8710;SDS011;4392;47.400;8.062;2022-08-27T04:56:46;34.23;;;32.63;;
8710;SDS011;4392;47.400;8.062;2022-08-27T04:59:12;34.10;;;32.37;;
8710;SDS011;4392;47.400;8.062;2022-08-27T05:01:39;34.43;;;32.83;;
8710;SDS011;4392;47.400;8.062;2022-08-27T05:04:05;34.03;;;32.30;;
8710;SDS011;4392;47.400;8.062;2022-08-27T05:06:32;35.03;;;33.27;;
8710;SDS011;4392;47.400;8.062;2022-08-27T05:08:59;35.50;;;33.60;;
8710;SDS011;4392;47.400;8.062;2022-08-27T05:11:25;35.80;;;34.00;;
8710;SDS011;4392;47.400;8.062;2022-08-27T05:13:56;36.50;;;34.50;;
8710;SDS011;4392;47.400;8.062;2022-08-27T05:16:23;36.17;;;34.27;;
8710;SDS011;4392;47.400;8.062;2022-08-27T05:18:49;36.10;;;34.20;;
8710;SDS011;4392;47.400;8.062;2022-08-27T05:21:20;38.17;;;35.77;;
8710;SDS011;4392;47.400;8.062;2022-08-27T05:23:48;37.63;;;35.40;;
8710;SDS011;4392;47.400;8.062;2022-08-27T05:26:15;37.47;;;35.13;;
8710;SDS011;4392;47.400;8.062;2022-08-27T05:28:40;38.47;;;36.13;;
8710;SDS011;4392;47.400;8.062;2022-08-27T05:31:07;39.50;;;37.10;;
8710;SDS011;4392;47.400;8.062;2022-08-27T05:33:34;38.73;;;36.43;;
8710;SDS011;4392;47.400;8.062;2022-08-27T05:36:02;38.00;;;35.70;;
8710;SDS011;4392;47.400;8.062;2022-08-27T05:38:29;38.03;;;35.73;;
8710;SDS011;4392;47.400;8.062;2022-08-27T05:41:10;38.90;;;36.63;;
8710;SDS011;4392;47.400;8.062;2022-08-27T05:43:39;38.40;;;35.97;;
8710;SDS011;4392;47.400;8.062;2022-08-27T05:46:10;38.83;;;36.53;;
8710;SDS011;4392;47.400;8.062;2022-08-27T05:48:37;38.20;;;35.87;;
8710;SDS011;4392;47.400;8.062;2022-08-27T05:53:34;36.97;;;34.83;;
8710;SDS011;4392;47.400;8.062;2022-08-27T05:56:00;36.97;;;34.80;;
8710;SDS011;4392;47.400;8.062;2022-08-27T05:58:26;37.20;;;34.93;;
8710;SDS011;4392;47.400;8.062;2022-08-27T06:01:10;36.30;;;34.33;;
8710;SDS011;4392;47.400;8.062;2022-08-27T06:03:36;36.43;;;34.43;;
8710;SDS011;4392;47.400;8.062;2022-08-27T06:06:03;36.13;;;34.03;;
8710;SDS011;4392;47.400;8.062;2022-08-27T06:08:37;35.83;;;33.93;;
8710;SDS011;4392;47.400;8.062;2022-08-27T06:11:03;36.10;;;34.10;;
8710;SDS011;4392;47.400;8.062;2022-08-27T06:13:31;36.43;;;34.33;;
8710;SDS011;4392;47.400;8.062;2022-08-27T06:16:04;35.50;;;33.57;;
8710;SDS011;4392;47.400;8.062;2022-08-27T06:18:34;35.23;;;33.40;;
8710;SDS011;4392;47.400;8.062;2022-08-27T06:21:02;35.80;;;33.83;;
8710;SDS011;4392;47.400;8.062;2022-08-27T06:23:29;36.17;;;34.17;;
8710;SDS011;4392;47.400;8.062;2022-08-27T06:25:55;35.27;;;33.47;;
8710;SDS011;4392;47.400;8.062;2022-08-27T06:28:23;35.90;;;34.10;;
8710;SDS011;4392;47.400;8.062;2022-08-27T06:31:00;35.43;;;33.67;;
8710;SDS011;4392;47.400;8.062;2022-08-27T06:33:27;36.40;;;34.50;;
8710;SDS011;4392;47.400;8.062;2022-08-27T06:35:56;36.77;;;34.67;;
8710;SDS011;4392;47.400;8.062;2022-08-27T06:38:31;35.73;;;33.73;;
8710;SDS011;4392;47.400;8.062;2022-08-27T06:40:57;36.97;;;34.97;;
8710;SDS011;4392;47.400;8.062;2022-08-27T06:43:24;35.83;;;33.93;;
8710;SDS011;4392;47.400;8.062;2022-08-27T06:45:50;36.40;;;34.60;;
8710;SDS011;4392;47.400;8.062;2022-08-27T06:48:16;38.80;;;36.30;;
8710;SDS011;4392;47.400;8.062;2022-08-27T06:50:42;38.30;;;35.93;;
8710;SDS011;4392;47.400;8.062;2022-08-27T06:53:11;37.30;;;35.30;;
8710;SDS011;4392;47.400;8.062;2022-08-27T06:55:41;37.03;;;35.03;;
8710;SDS011;4392;47.400;8.062;2022-08-27T06:58:08;37.00;;;34.90;;
8710;SDS011;4392;47.400;8.062;2022-08-27T07:00:34;37.63;;;35.53;;
8710;SDS011;4392;47.400;8.062;2022-08-27T07:03:00;37.77;;;35.47;;
8710;SDS011;4392;47.400;8.062;2022-08-27T07:05:30;37.80;;;35.43;;
8710;SDS011;4392;47.400;8.062;2022-08-27T07:08:00;36.70;;;34.73;;
8710;SDS011;4392;47.400;8.062;2022-08-27T07:10:26;37.37;;;35.30;;
8710;SDS011;4392;47.400;8.062;2022-08-27T07:12:52;37.73;;;35.50;;
8710;SDS011;4392;47.400;8.062;2022-08-27T07:15:18;37.37;;;35.37;;
8710;SDS011;4392;47.400;8.062;2022-08-27T07:17:44;36.90;;;34.87;;
8710;SDS011;4392;47.400;8.062;2022-08-27T07:20:10;37.10;;;35.00;;
8710;SDS011;4392;47.400;8.062;2022-08-27T07:22:38;36.23;;;34.33;;
8710;SDS011;4392;47.400;8.062;2022-08-27T07:25:05;37.40;;;35.13;;
8710;SDS011;4392;47.400;8.062;2022-08-27T07:27:34;35.83;;;33.93;;
8710;SDS011;4392;47.400;8.062;2022-08-27T07:30:03;37.53;;;35.23;;
8710;SDS011;4392;47.400;8.062;2022-08-27T07:32:30;36.50;;;34.57;;
8710;SDS011;4392;47.400;8.062;2022-08-27T07:34:56;35.97;;;34.17;;
8710;SDS011;4392;47.400;8.062;2022-08-27T07:37:24;36.27;;;34.30;;
8710;SDS011;4392;47.400;8.062;2022-08-27T07:39:50;36.30;;;34.27;;
8710;SDS011;4392;47.400;8.062;2022-08-27T07:42:16;36.77;;;34.77;;
8710;SDS011;4392;47.400;8.062;2022-08-27T07:45:00;36.93;;;34.93;;
8710;SDS011;4392;47.400;8.062;2022-08-27T07:47:26;35.97;;;34.17;;
8710;SDS011;4392;47.400;8.062;2022-08-27T07:49:51;36.47;;;34.57;;
8710;SDS011;4392;47.400;8.062;2022-08-27T07:52:17;36.40;;;34.57;;
8710;SDS011;4392;47.400;8.062;2022-08-27T07:54:43;36.53;;;34.33;;
8710;SDS011;4392;47.400;8.062;2022-08-27T07:57:09;35.70;;;33.83;;
8710;SDS011;4392;47.400;8.062;2022-08-27T07:59:35;36.20;;;34.20;;
8710;SDS011;4392;47.400;8.062;2022-08-27T08:02:01;36.07;;;33.97;;
8710;SDS011;4392;47.400;8.062;2022-08-27T08:04:27;36.07;;;34.17;;
8710;SDS011;4392;47.400;8.062;2022-08-27T08:06:55;35.47;;;33.67;;
8710;SDS011;4392;47.400;8.062;2022-08-27T08:09:21;35.93;;;33.93;;
8710;SDS011;4392;47.400;8.062;2022-08-27T08:11:49;35.27;;;33.43;;
8710;SDS011;4392;47.400;8.062;2022-08-27T08:14:18;36.20;;;34.30;;
8710;SDS011;4392;47.400;8.062;2022-08-27T08:16:44;35.83;;;33.83;;
8710;SDS011;4392;47.400;8.062;2022-08-27T08:19:10;36.23;;;34.27;;
8710;SDS011;4392;47.400;8.062;2022-08-27T08:21:36;36.47;;;34.47;;
8710;SDS011;4392;47.400;8.062;2022-08-27T08:24:03;37.47;;;35.17;;
8710;SDS011;4392;47.400;8.062;2022-08-27T08:26:29;35.67;;;33.70;;
8710;SDS011;4392;47.400;8.062;2022-08-27T08:28:54;35.53;;;33.73;;
8710;SDS011;4392;47.400;8.062;2022-08-27T08:31:20;36.23;;;34.23;;
8710;SDS011;4392;47.400;8.062;2022-08-27T08:33:48;36.57;;;34.40;;
8710;SDS011;4392;47.400;8.062;2022-08-27T08:36:14;35.73;;;33.93;;
8710;SDS011;4392;47.400;8.062;2022-08-27T08:38:42;35.63;;;33.83;;
8710;SDS011;4392;47.400;8.062;2022-08-27T08:41:22;36.57;;;34.67;;
8710;SDS011;4392;47.400;8.062;2022-08-27T08:43:56;35.87;;;33.97;;
8710;SDS011;4392;47.400;8.062;2022-08-27T08:46:34;34.63;;;33.00;;
8710;SDS011;4392;47.400;8.062;2022-08-27T08:49:11;35.37;;;33.47;;
8710;SDS011;4392;47.400;8.062;2022-08-27T08:51:50;35.57;;;33.77;;
8710;SDS011;4392;47.400;8.062;2022-08-27T08:54:21;36.67;;;34.77;;
8710;SDS011;4392;47.400;8.062;2022-08-27T08:59:41;35.87;;;33.90;;
8710;SDS011;4392;47.400;8.062;2022-08-27T09:02:12;35.27;;;33.47;;
8710;SDS011;4392;47.400;8.062;2022-08-27T09:04:40;35.23;;;33.43;;
8710;SDS011;4392;47.400;8.062;2022-08-27T09:07:18;35.93;;;34.13;;
8710;SDS011;4392;47.400;8.062;2022-08-27T09:12:58;35.17;;;33.20;;
8710;SDS011;4392;47.400;8.062;2022-08-27T09:15:34;35.10;;;33.30;;
8710;SDS011;4392;47.400;8.062;2022-08-27T09:18:11;35.50;;;33.60;;
8710;SDS011;4392;47.400;8.062;2022-08-27T09:20:38;35.23;;;33.43;;
8710;SDS011;4392;47.400;8.062;2022-08-27T09:23:22;35.00;;;33.30;;
8710;SDS011;4392;47.400;8.062;2022-08-27T09:25:57;35.23;;;33.57;;
8710;SDS011;4392;47.400;8.062;2022-08-27T09:28:24;35.17;;;33.47;;
8710;SDS011;4392;47.400;8.062;2022-08-27T09:31:12;35.50;;;33.80;;
8710;SDS011;4392;47.400;8.062;2022-08-27T09:33:43;35.23;;;33.43;;
8710;SDS011;4392;47.400;8.062;2022-08-27T09:36:11;34.97;;;33.30;;
8710;SDS011;4392;47.400;8.062;2022-08-27T09:38:40;35.13;;;33.33;;
8710;SDS011;4392;47.400;8.062;2022-08-27T09:41:20;34.87;;;33.07;;
8710;SDS011;4392;47.400;8.062;2022-08-27T09:44:00;34.97;;;33.27;;
8710;SDS011;4392;47.400;8.062;2022-08-27T09:46:31;34.67;;;32.97;;
8710;SDS011;4392;47.400;8.062;2022-08-27T09:49:15;34.73;;;33.03;;
8710;SDS011;4392;47.400;8.062;2022-08-27T09:51:43;34.77;;;33.07;;
8710;SDS011;4392;47.400;8.062;2022-08-27T09:54:30;35.20;;;33.60;;
8710;SDS011;4392;47.400;8.062;2022-08-27T09:57:06;34.50;;;32.80;;
8710;SDS011;4392;47.400;8.062;2022-08-27T09:59:35;34.17;;;32.57;;
8710;SDS011;4392;47.400;8.062;2022-08-27T10:02:11;35.17;;;33.47;;
8710;SDS011;4392;47.400;8.062;2022-08-27T10:04:44;37.37;;;35.30;;
8710;SDS011;4392;47.400;8.062;2022-08-27T10:10:19;35.63;;;33.93;;
8710;SDS011;4392;47.400;8.062;2022-08-27T10:12:51;35.13;;;33.43;;
8710;SDS011;4392;47.400;8.062;2022-08-27T10:15:44;34.80;;;33.10;;
8710;SDS011;4392;47.400;8.062;2022-08-27T10:18:33;35.43;;;33.60;;
8710;SDS011;4392;47.400;8.062;2022-08-27T10:21:06;34.07;;;32.47;;
8710;SDS011;4392;47.400;8.062;2022-08-27T10:34:42;34.37;;;32.77;;
8710;SDS011;4392;47.400;8.062;2022-08-27T10:42:22;34.63;;;33.03;;
8710;SDS011;4392;47.400;8.062;2022-08-27T10:47:54;34.93;;;33.17;;
8710;SDS011;4392;47.400;8.062;2022-08-27T10:51:13;33.93;;;32.40;;
8710;SDS011;4392;47.400;8.062;2022-08-27T11:04:48;35.43;;;33.67;;
8710;SDS011;4392;47.400;8.062;2022-08-27T11:07:23;34.67;;;33.07;;
8710;SDS011;4392;47.400;8.062;2022-08-27T11:09:57;36.00;;;34.17;;
8710;SDS011;4392;47.400;8.062;2022-08-27T11:12:37;35.93;;;34.13;;
8710;SDS011;4392;47.400;8.062;2022-08-27T11:15:26;35.97;;;34.17;;
8710;SDS011;4392;47.400;8.062;2022-08-27T11:18:00;35.07;;;33.30;;
8710;SDS011;4392;47.400;8.062;2022-08-27T11:23:18;35.10;;;33.40;;
8710;SDS011;4392;47.400;8.062;2022-08-27T11:25:55;35.63;;;33.83;;
8710;SDS011;4392;47.400;8.062;2022-08-27T11:31:17;35.40;;;33.60;;
8710;SDS011;4392;47.400;8.062;2022-08-27T11:36:40;34.83;;;33.13;;
8710;SDS011;4392;47.400;8.062;2022-08-27T11:44:48;34.80;;;33.10;;
8710;SDS011;4392;47.400;8.062;2022-08-27T11:47:25;35.67;;;33.90;;
8710;SDS011;4392;47.400;8.062;2022-08-27T11:52:27;35.20;;;33.50;;
8710;SDS011;4392;47.400;8.062;2022-08-27T11:55:07;35.60;;;33.77;;
8710;SDS011;4392;47.400;8.062;2022-08-27T11:57:46;34.83;;;33.13;;
8710;SDS011;4392;47.400;8.062;2022-08-27T12:00:20;35.43;;;33.73;;
8710;SDS011;4392;47.400;8.062;2022-08-27T12:02:58;35.93;;;34.03;;
8710;SDS011;4392;47.400;8.062;2022-08-27T12:07:57;36.27;;;34.37;;
8710;SDS011;4392;47.400;8.062;2022-08-27T12:19:00;35.57;;;33.67;;
8710;SDS011;4392;47.400;8.062;2022-08-27T12:21:35;35.60;;;33.80;;
8710;SDS011;4392;47.400;8.062;2022-08-27T12:24:37;38.20;;;35.60;;
8710;SDS011;4392;47.400;8.062;2022-08-27T12:30:04;36.83;;;34.87;;
8710;SDS011;4392;47.400;8.062;2022-08-27T12:32:52;36.23;;;34.37;;
8710;SDS011;4392;47.400;8.062;2022-08-27T12:37:51;37.35;;;35.40;;
8710;SDS011;4392;47.400;8.062;2022-08-27T12:40:23;38.57;;;36.47;;
8710;SDS011;4392;47.400;8.062;2022-08-27T12:42:50;37.83;;;35.70;;
8710;SDS011;4392;47.400;8.062;2022-08-27T12:45:27;36.57;;;34.57;;
8710;SDS011;4392;47.400;8.062;2022-08-27T12:47:54;37.20;;;35.10;;
8710;SDS011;4392;47.400;8.062;2022-08-27T12:50:26;37.50;;;35.57;;
8710;SDS011;4392;47.400;8.062;2022-08-27T13:03:43;37.33;;;35.33;;
8710;SDS011;4392;47.400;8.062;2022-08-27T13:06:18;37.57;;;35.47;;
8710;SDS011;4392;47.400;8.062;2022-08-27T13:08:46;38.17;;;35.83;;
8710;SDS011;4392;47.400;8.062;2022-08-27T13:13:49;37.65;;;35.65;;
8710;SDS011;4392;47.400;8.062;2022-08-27T13:16:19;37.67;;;35.57;;
8710;SDS011;4392;47.400;8.062;2022-08-27T13:18:47;36.67;;;34.67;;
8710;SDS011;4392;47.400;8.062;2022-08-27T13:24:00;36.75;;;34.90;;
8710;SDS011;4392;47.400;8.062;2022-08-27T13:26:33;36.83;;;34.92;;
8710;SDS011;4392;47.400;8.062;2022-08-27T13:29:04;37.08;;;35.20;;
8710;SDS011;4392;47.400;8.062;2022-08-27T13:31:31;36.73;;;34.83;;
8710;SDS011;4392;47.400;8.062;2022-08-27T13:33:58;37.38;;;35.28;;
8710;SDS011;4392;47.400;8.062;2022-08-27T13:36:35;37.65;;;35.65;;
8710;SDS011;4392;47.400;8.062;2022-08-27T13:39:20;36.50;;;34.65;;
8710;SDS011;4392;47.400;8.062;2022-08-27T13:41:46;38.00;;;35.90;;
8710;SDS011;4392;47.400;8.062;2022-08-27T13:44:13;37.25;;;35.33;;
8710;SDS011;4392;47.400;8.062;2022-08-27T13:46:53;37.75;;;35.75;;
8710;SDS011;4392;47.400;8.062;2022-08-27T13:49:27;37.83;;;35.83;;
8710;SDS011;4392;47.400;8.062;2022-08-27T13:51:59;37.40;;;35.40;;
8710;SDS011;4392;47.400;8.062;2022-08-27T13:54:26;37.85;;;35.75;;
8710;SDS011;4392;47.400;8.062;2022-08-27T13:59:28;36.92;;;35.03;;
8710;SDS011;4392;47.400;8.062;2022-08-27T14:02:03;36.05;;;34.25;;
8710;SDS011;4392;47.400;8.062;2022-08-27T14:04:45;36.47;;;34.58;;
8710;SDS011;4392;47.400;8.062;2022-08-27T14:07:34;37.30;;;35.35;;
8710;SDS011;4392;47.400;8.062;2022-08-27T14:10:30;37.13;;;35.13;;
8710;SDS011;4392;47.400;8.062;2022-08-27T14:12:55;37.97;;;35.75;;
8710;SDS011;4392;47.400;8.062;2022-08-27T14:18:05;36.85;;;34.92;;
8710;SDS011;4392;47.400;8.062;2022-08-27T14:20:44;37.47;;;35.38;;
8710;SDS011;4392;47.400;8.062;2022-08-27T14:23:09;38.50;;;36.40;;
8710;SDS011;4392;47.400;8.062;2022-08-27T14:25:35;36.63;;;34.72;;
8710;SDS011;4392;47.400;8.062;2022-08-27T14:28:01;36.47;;;34.60;;
8710;SDS011;4392;47.400;8.062;2022-08-27T14:30:27;36.93;;;35.03;;
8710;SDS011;4392;47.400;8.062;2022-08-27T14:32:53;41.28;;;38.50;;
8710;SDS011;4392;47.400;8.062;2022-08-27T14:35:18;37.90;;;36.00;;
8710;SDS011;4392;47.400;8.062;2022-08-27T14:37:44;38.20;;;36.17;;
8710;SDS011;4392;47.400;8.062;2022-08-27T14:40:11;41.90;;;39.30;;
8710;SDS011;4392;47.400;8.062;2022-08-27T14:42:39;36.47;;;34.67;;
8710;SDS011;4392;47.400;8.062;2022-08-27T14:45:07;36.55;;;34.72;;
8710;SDS011;4392;47.400;8.062;2022-08-27T14:47:34;35.80;;;34.10;;
8710;SDS011;4392;47.400;8.062;2022-08-27T14:50:03;36.08;;;34.33;;
8710;SDS011;4392;47.400;8.062;2022-08-27T14:52:32;35.30;;;33.60;;
8710;SDS011;4392;47.400;8.062;2022-08-27T14:54:57;37.10;;;35.20;;
8710;SDS011;4392;47.400;8.062;2022-08-27T14:57:23;41.22;;;38.83;;
8710;SDS011;4392;47.400;8.062;2022-08-27T14:59:49;37.25;;;35.42;;
8710;SDS011;4392;47.400;8.062;2022-08-27T15:02:14;36.45;;;34.65;;
8710;SDS011;4392;47.400;8.062;2022-08-27T15:04:45;36.88;;;35.05;;
8710;SDS011;4392;47.400;8.062;2022-08-27T15:07:11;42.72;;;40.03;;
8710;SDS011;4392;47.400;8.062;2022-08-27T15:09:36;40.33;;;38.00;;
8710;SDS011;4392;47.400;8.062;2022-08-27T15:12:02;38.00;;;36.08;;
8710;SDS011;4392;47.400;8.062;2022-08-27T15:14:30;38.30;;;36.30;;
8710;SDS011;4392;47.400;8.062;2022-08-27T15:16:59;37.83;;;35.83;;
8710;SDS011;4392;47.400;8.062;2022-08-27T15:19:27;38.30;;;36.30;;
8710;SDS011;4392;47.400;8.062;2022-08-27T15:21:55;38.13;;;35.88;;
8710;SDS011;4392;47.400;8.062;2022-08-27T15:24:43;37.33;;;35.22;;
8710;SDS011;4392;47.400;8.062;2022-08-27T15:27:12;38.92;;;36.70;;
8710;SDS011;4392;47.400;8.062;2022-08-27T15:29:37;37.90;;;35.90;;
8710;SDS011;4392;47.400;8.062;2022-08-27T15:32:04;37.42;;;35.53;;
8710;SDS011;4392;47.400;8.062;2022-08-27T15:34:30;38.25;;;36.25;;
8710;SDS011;4392;47.400;8.062;2022-08-27T15:36:56;37.50;;;35.47;;
8710;SDS011;4392;47.400;8.062;2022-08-27T15:39:22;37.85;;;35.85;;
8710;SDS011;4392;47.400;8.062;2022-08-27T15:41:48;37.80;;;35.78;;
8710;SDS011;4392;47.400;8.062;2022-08-27T15:44:14;37.63;;;35.55;;
8710;SDS011;4392;47.400;8.062;2022-08-27T15:46:40;37.85;;;35.95;;
8710;SDS011;4392;47.400;8.062;2022-08-27T15:49:07;37.85;;;35.95;;
8710;SDS011;4392;47.400;8.062;2022-08-27T15:51:34;37.80;;;35.90;;
8710;SDS011;4392;47.400;8.062;2022-08-27T15:54:00;37.90;;;35.90;;
8710;SDS011;4392;47.400;8.062;2022-08-27T15:56:26;37.72;;;35.63;;
8710;SDS011;4392;47.400;8.062;2022-08-27T15:58:52;38.72;;;36.50;;
8710;SDS011;4392;47.400;8.062;2022-08-27T16:01:24;38.28;;;36.20;;
8710;SDS011;4392;47.400;8.062;2022-08-27T16:03:53;37.50;;;35.42;;
8710;SDS011;4392;47.400;8.062;2022-08-27T16:06:19;37.88;;;35.70;;
8710;SDS011;4392;47.400;8.062;2022-08-27T16:08:45;38.47;;;36.25;;
8710;SDS011;4392;47.400;8.062;2022-08-27T16:11:11;42.13;;;39.33;;
8710;SDS011;4392;47.400;8.062;2022-08-27T16:13:37;40.65;;;38.05;;
8710;SDS011;4392;47.400;8.062;2022-08-27T16:16:05;38.13;;;35.90;;
8710;SDS011;4392;47.400;8.062;2022-08-27T16:18:32;38.17;;;36.00;;
8710;SDS011;4392;47.400;8.062;2022-08-27T16:20:59;37.60;;;35.60;;
8710;SDS011;4392;47.400;8.062;2022-08-27T16:23:27;37.33;;;35.35;;
8710;SDS011;4392;47.400;8.062;2022-08-27T16:25:54;37.73;;;35.60;;
8710;SDS011;4392;47.400;8.062;2022-08-27T16:28:21;37.33;;;35.33;;
8710;SDS011;4392;47.400;8.062;2022-08-27T16:30:48;37.50;;;35.50;;
8710;SDS011;4392;47.400;8.062;2022-08-27T16:33:18;36.67;;;34.70;;
8710;SDS011;4392;47.400;8.062;2022-08-27T16:35:44;36.40;;;34.50;;
8710;SDS011;4392;47.400;8.062;2022-08-27T16:38:10;36.83;;;34.78;;
8710;SDS011;4392;47.400;8.062;2022-08-27T16:40:57;41.63;;;38.90;;